createdAt,value
2023-04-17T00:01:41.087Z,91.30
2023-04-17T00:04:11.757Z,91.35
2023-04-17T00:06:40.030Z,91.14
2023-04-17T00:09:06.848Z,91.31
2023-04-17T00:11:33.211Z,91.87
2023-04-17T00:13:59.884Z,91.48
2023-04-17T00:16:27.350Z,91.79
2023-04-17T00:18:55.059Z,91.50
2023-04-17T00:21:22.461Z,91.74
2023-04-17T00:23:49.139Z,91.55
2023-04-17T00:26:16.507Z,91.40
2023-04-17T00:28:43.285Z,91.31
2023-04-17T00:31:09.709Z,91.76
2023-04-17T00:33:36.166Z,90.85
2023-04-17T00:36:02.788Z,91.32
2023-04-17T00:38:29.157Z,91.55
2023-04-17T00:40:57.659Z,91.33
2023-04-17T00:43:23.986Z,91.35
2023-04-17T00:45:51.282Z,91.58
2023-04-17T00:48:18.341Z,91.48
2023-04-17T00:53:25.910Z,91.47
2023-04-17T00:55:52.580Z,91.83
2023-04-17T00:58:30.532Z,92.16
2023-04-17T01:00:57.003Z,91.94
2023-04-17T01:03:23.629Z,92.59
2023-04-17T01:05:51.968Z,92.27
2023-04-17T01:08:19.226Z,92.38
2023-04-17T01:10:45.768Z,92.53
2023-04-17T01:13:12.250Z,92.73
2023-04-17T01:15:38.810Z,92.23
2023-04-17T01:18:06.501Z,91.68
2023-04-17T01:20:34.068Z,91.84
2023-04-17T01:23:01.161Z,91.81
2023-04-17T01:25:28.495Z,91.69
2023-04-17T01:27:55.203Z,92.16
2023-04-17T01:30:21.689Z,92.17
2023-04-17T01:32:48.225Z,91.88
2023-04-17T01:35:14.737Z,92.02
2023-04-17T01:37:41.191Z,92.38
2023-04-17T01:40:08.653Z,92.24
2023-04-17T01:42:35.139Z,91.81
2023-04-17T01:45:01.746Z,91.45
2023-04-17T01:47:28.155Z,91.66
2023-04-17T01:49:54.943Z,91.73
2023-04-17T01:52:21.636Z,91.45
2023-04-17T01:54:48.065Z,91.03
2023-04-17T01:57:14.670Z,90.84
2023-04-17T01:59:41.063Z,91.03
2023-04-17T02:02:07.693Z,90.79
2023-04-17T02:04:34.295Z,91.32
2023-04-17T02:07:00.783Z,90.74
2023-04-17T02:09:27.277Z,90.93
2023-04-17T02:11:54.087Z,91.10
2023-04-17T02:17:04.402Z,91.19
2023-04-17T02:19:30.935Z,91.25
2023-04-17T02:21:57.675Z,91.01
2023-04-17T02:24:24.193Z,90.61
2023-04-17T02:26:53.865Z,90.58
2023-04-17T02:29:20.626Z,90.58
2023-04-17T02:31:47.195Z,90.81
2023-04-17T02:34:13.679Z,90.46
2023-04-17T02:36:40.299Z,91.13
2023-04-17T02:39:06.866Z,91.19
2023-04-17T02:41:33.490Z,90.71
2023-04-17T02:44:01.301Z,91.08
2023-04-17T02:46:27.834Z,91.41
2023-04-17T02:48:54.608Z,91.04
2023-04-17T02:51:21.162Z,90.78
2023-04-17T02:53:49.096Z,90.99
2023-04-17T02:56:15.714Z,90.94
2023-04-17T02:58:44.998Z,91.61
2023-04-17T03:01:12.097Z,91.35
2023-04-17T03:03:42.931Z,91.89
2023-04-17T03:06:09.983Z,91.38
2023-04-17T03:08:38.770Z,91.69
2023-04-17T03:11:06.223Z,91.83
2023-04-17T03:13:36.425Z,92.10
2023-04-17T03:16:04.756Z,92.21
2023-04-17T03:18:32.046Z,92.42
2023-04-17T03:20:58.672Z,91.80
2023-04-17T03:23:25.359Z,92.08
2023-04-17T03:25:52.026Z,91.70
2023-04-17T03:28:18.697Z,92.09
2023-04-17T03:30:45.393Z,92.03
2023-04-17T03:33:11.757Z,92.39
2023-04-17T03:35:38.256Z,92.33
2023-04-17T03:38:04.652Z,92.84
2023-04-17T03:40:33.206Z,93.01
2023-04-17T03:43:00.381Z,93.00
2023-04-17T03:45:26.863Z,93.04
2023-04-17T03:47:53.394Z,93.56
2023-04-17T03:50:26.533Z,92.99
2023-04-17T03:52:55.884Z,93.60
2023-04-17T03:55:24.689Z,93.50
2023-04-17T03:57:51.850Z,93.50
2023-04-17T04:00:18.743Z,93.54
2023-04-17T04:02:45.453Z,93.66
2023-04-17T04:05:12.179Z,93.76
2023-04-17T04:07:38.681Z,93.91
2023-04-17T04:10:05.894Z,93.45
2023-04-17T04:12:32.281Z,93.35
2023-04-17T04:14:58.957Z,93.02
2023-04-17T04:17:25.777Z,93.49
2023-04-17T04:19:52.387Z,93.18
2023-04-17T04:22:21.316Z,93.27
2023-04-17T04:24:47.888Z,92.70
2023-04-17T04:27:17.992Z,92.70
2023-04-17T04:29:48.778Z,92.95
2023-04-17T04:32:16.749Z,92.89
2023-04-17T04:34:44.505Z,92.95
2023-04-17T04:37:15.953Z,93.30
2023-04-17T04:39:43.168Z,93.15
2023-04-17T04:42:09.951Z,93.18
2023-04-17T04:44:39.553Z,93.15
2023-04-17T04:47:06.383Z,93.62
2023-04-17T04:49:32.874Z,93.36
2023-04-17T04:51:59.457Z,93.31
2023-04-17T04:54:26.168Z,93.39
2023-04-17T04:56:52.646Z,93.89
2023-04-17T04:59:19.151Z,93.81
2023-04-17T05:01:46.046Z,93.79
2023-04-17T05:04:12.669Z,94.37
2023-04-17T05:06:39.284Z,93.66
2023-04-17T05:09:05.718Z,93.88
2023-04-17T05:11:33.408Z,94.32
2023-04-17T05:14:00.119Z,94.26
2023-04-17T05:16:26.757Z,94.51
2023-04-17T05:18:53.344Z,94.74
2023-04-17T05:21:19.842Z,94.58
2023-04-17T05:23:46.421Z,94.69
2023-04-17T05:26:13.007Z,94.36
2023-04-17T05:28:39.571Z,94.53
2023-04-17T05:31:06.660Z,95.00
2023-04-17T05:33:33.142Z,94.49
2023-04-17T05:35:59.558Z,94.40
2023-04-17T05:38:26.346Z,94.31
2023-04-17T05:40:53.870Z,94.29
2023-04-17T05:43:20.498Z,94.48
2023-04-17T05:45:47.748Z,94.76
2023-04-17T05:48:14.420Z,94.10
2023-04-17T05:50:41.427Z,94.70
2023-04-17T05:53:17.037Z,94.61
2023-04-17T05:55:43.736Z,94.29
2023-04-17T05:58:23.219Z,94.30
2023-04-17T06:00:51.922Z,94.63
2023-04-17T06:03:19.466Z,94.00
2023-04-17T06:05:47.228Z,94.14
2023-04-17T06:08:14.067Z,94.45
2023-04-17T06:10:56.278Z,94.57
2023-04-17T06:13:24.405Z,94.45
2023-04-17T06:16:00.389Z,94.09
2023-04-17T06:18:26.979Z,94.02
2023-04-17T06:20:53.527Z,94.01
2023-04-17T06:23:25.828Z,94.17
2023-04-17T06:25:52.652Z,93.89
2023-04-17T06:28:19.177Z,93.63
2023-04-17T06:30:46.395Z,93.96
2023-04-17T06:33:12.978Z,94.00
2023-04-17T06:35:39.604Z,93.95
2023-04-17T06:38:06.328Z,94.31
2023-04-17T06:40:33.361Z,93.85
2023-04-17T06:42:59.942Z,94.05
2023-04-17T06:45:26.464Z,93.90
2023-04-17T06:47:52.850Z,93.96
2023-04-17T06:50:19.400Z,94.33
2023-04-17T06:52:46.000Z,94.32
2023-04-17T06:55:12.463Z,94.69
2023-04-17T06:57:39.239Z,95.10
2023-04-17T07:00:06.828Z,95.85
2023-04-17T07:02:33.581Z,95.58
2023-04-17T07:05:00.435Z,95.75
2023-04-17T07:07:28.056Z,95.90
2023-04-17T07:09:54.604Z,96.27
2023-04-17T07:12:22.801Z,96.19
2023-04-17T07:14:49.484Z,96.06
2023-04-17T07:17:15.950Z,95.80
2023-04-17T07:19:42.390Z,95.37
2023-04-17T07:22:10.337Z,95.24
2023-04-17T07:24:36.782Z,94.53
2023-04-17T07:27:04.026Z,94.44
2023-04-17T07:29:30.778Z,94.22
2023-04-17T07:31:57.619Z,94.04
2023-04-17T07:34:25.263Z,93.46
2023-04-17T07:36:54.950Z,92.33
2023-04-17T07:39:21.385Z,92.28
2023-04-17T07:41:49.209Z,92.28
2023-04-17T07:44:16.207Z,91.41
2023-04-17T07:46:42.696Z,91.04
2023-04-17T07:49:11.464Z,90.71
2023-04-17T07:51:41.227Z,90.86
2023-04-17T07:54:07.910Z,90.77
2023-04-17T07:56:34.678Z,90.99
2023-04-17T07:59:01.143Z,90.87
2023-04-17T08:01:27.820Z,90.79
2023-04-17T08:03:55.769Z,90.77
2023-04-17T08:06:22.423Z,90.98
2023-04-17T08:08:48.873Z,91.06
2023-04-17T08:11:21.263Z,90.82
2023-04-17T08:13:59.102Z,89.72
2023-04-17T08:16:25.526Z,89.17
2023-04-17T08:18:51.969Z,88.76
2023-04-17T08:21:18.475Z,88.24
2023-04-17T08:23:44.960Z,87.99
2023-04-17T08:26:11.717Z,87.89
2023-04-17T08:28:38.332Z,87.65
2023-04-17T08:31:05.251Z,86.72
2023-04-17T08:33:32.323Z,86.77
2023-04-17T08:36:03.619Z,86.81
2023-04-17T08:38:31.262Z,86.61
2023-04-17T08:41:02.162Z,86.01
2023-04-17T08:43:29.661Z,85.71
2023-04-17T08:45:57.010Z,85.72
2023-04-17T08:48:24.648Z,85.82
2023-04-17T08:50:52.637Z,85.12
2023-04-17T08:53:19.688Z,85.04
2023-04-17T08:55:54.485Z,84.43
2023-04-17T08:58:24.156Z,84.38
2023-04-17T09:00:50.882Z,84.55
2023-04-17T09:03:17.385Z,82.62
2023-04-17T09:05:46.650Z,81.98
2023-04-17T09:08:16.914Z,80.90
2023-04-17T09:10:45.866Z,79.62
2023-04-17T09:13:17.673Z,78.05
2023-04-17T09:15:46.529Z,77.04
2023-04-17T09:18:27.376Z,76.06
2023-04-17T09:20:54.176Z,71.92
2023-04-17T09:23:21.602Z,71.07
2023-04-17T09:26:07.956Z,69.10
2023-04-17T09:28:39.705Z,70.73
2023-04-17T09:31:24.628Z,69.00
2023-04-17T09:34:14.207Z,69.52
2023-04-17T09:36:43.404Z,70.65
2023-04-17T09:39:20.347Z,69.90
2023-04-17T09:41:47.265Z,70.19
2023-04-17T09:44:26.128Z,69.80
2023-04-17T09:46:53.541Z,70.36
2023-04-17T09:49:29.522Z,68.43
2023-04-17T09:51:57.942Z,67.61
2023-04-17T09:54:25.269Z,68.20
2023-04-17T09:56:56.093Z,67.94
2023-04-17T09:59:26.217Z,68.13
2023-04-17T10:01:54.583Z,66.58
2023-04-17T10:04:21.910Z,67.43
2023-04-17T10:06:50.089Z,68.19
2023-04-17T10:09:16.746Z,66.84
2023-04-17T10:11:47.830Z,67.45
2023-04-17T10:14:26.080Z,65.89
2023-04-17T10:16:53.723Z,65.68
2023-04-17T10:19:27.831Z,66.08
2023-04-17T10:22:16.262Z,66.09
2023-04-17T10:24:43.162Z,65.32
2023-04-17T10:27:36.281Z,65.91
2023-04-17T10:30:04.853Z,65.21
2023-04-17T10:32:34.122Z,64.52
2023-04-17T10:35:04.049Z,63.49
2023-04-17T10:37:51.918Z,63.53
2023-04-17T10:40:22.949Z,64.04
2023-04-17T10:43:02.936Z,62.58
2023-04-17T10:46:07.069Z,62.17
2023-04-17T10:48:49.911Z,61.80
2023-04-17T10:51:27.001Z,56.95
2023-04-17T10:54:01.241Z,58.92
2023-04-17T10:56:30.912Z,60.74
2023-04-17T10:58:58.210Z,57.66
2023-04-17T11:01:37.505Z,55.62
2023-04-17T11:04:05.249Z,55.17
2023-04-17T11:06:39.505Z,55.17
2023-04-17T11:09:11.029Z,54.84
2023-04-17T11:12:03.979Z,55.93
2023-04-17T11:14:46.136Z,55.85
2023-04-17T11:17:15.342Z,55.14
2023-04-17T11:19:46.739Z,53.32
2023-04-17T11:22:13.391Z,56.64
2023-04-17T11:24:40.171Z,55.49
2023-04-17T11:27:07.206Z,55.44
2023-04-17T11:29:33.792Z,53.46
2023-04-17T11:32:01.632Z,51.21
2023-04-17T11:34:28.183Z,53.13
2023-04-17T11:37:15.297Z,53.42
2023-04-17T11:39:43.011Z,51.50
2023-04-17T11:44:53.282Z,50.82
2023-04-17T11:47:19.994Z,51.05
2023-04-17T11:49:47.146Z,48.30
2023-04-17T11:52:15.761Z,51.52
2023-04-17T11:54:58.277Z,50.49
2023-04-17T11:57:25.017Z,50.84
2023-04-17T12:00:12.599Z,53.17
2023-04-17T12:02:45.632Z,53.39
2023-04-17T12:05:27.818Z,48.93
2023-04-17T12:08:05.107Z,51.57
2023-04-17T12:10:50.738Z,51.35
2023-04-17T12:13:29.181Z,51.25
2023-04-17T12:15:55.837Z,51.78
2023-04-17T12:18:22.304Z,52.06
2023-04-17T12:20:48.972Z,52.98
2023-04-17T12:23:15.490Z,50.73
2023-04-17T12:25:45.191Z,53.77
2023-04-17T12:28:11.710Z,52.69
2023-04-17T12:30:39.941Z,54.40
2023-04-17T12:33:07.272Z,53.43
2023-04-17T12:35:37.105Z,54.49
2023-04-17T12:38:03.940Z,54.64
2023-04-17T12:40:30.459Z,54.69
2023-04-17T12:42:57.040Z,52.82
2023-04-17T12:45:23.758Z,54.34
2023-04-17T12:47:50.502Z,54.88
2023-04-17T12:50:17.177Z,52.79
2023-04-17T12:53:02.583Z,53.17
2023-04-17T12:55:29.067Z,54.21
2023-04-17T12:57:55.488Z,54.19
2023-04-17T13:00:22.113Z,53.06
2023-04-17T13:02:48.990Z,52.75
2023-04-17T13:05:19.390Z,51.87
2023-04-17T13:10:29.580Z,51.08
2023-04-17T13:13:08.712Z,52.12
2023-04-17T13:15:36.073Z,52.96
2023-04-17T13:18:03.011Z,53.89
2023-04-17T13:20:30.008Z,53.60
2023-04-17T13:22:58.359Z,52.38
2023-04-17T13:25:36.743Z,53.26
2023-04-17T13:28:03.988Z,53.31
2023-04-17T13:30:32.315Z,52.64
2023-04-17T13:32:58.805Z,52.45
2023-04-17T13:35:25.386Z,52.67
2023-04-17T13:37:51.934Z,54.32
2023-04-17T13:40:18.772Z,52.56
2023-04-17T13:42:45.303Z,52.65
2023-04-17T13:45:12.474Z,52.40
2023-04-17T13:47:39.117Z,52.12
2023-04-17T13:50:06.454Z,48.21
2023-04-17T13:52:32.992Z,47.92
2023-04-17T13:57:51.012Z,48.49
2023-04-17T14:00:28.954Z,49.19
2023-04-17T14:02:55.791Z,49.73
2023-04-17T14:05:22.663Z,51.04
2023-04-17T14:07:49.383Z,50.07
2023-04-17T14:10:15.978Z,50.04
2023-04-17T14:12:42.441Z,51.23
2023-04-17T14:15:09.401Z,50.08
2023-04-17T14:17:43.150Z,49.37
2023-04-17T14:20:11.345Z,50.54
2023-04-17T14:22:43.986Z,49.95
2023-04-17T14:25:10.591Z,51.29
2023-04-17T14:27:37.081Z,52.44
2023-04-17T14:30:03.968Z,52.43
2023-04-17T14:32:30.496Z,51.79
2023-04-17T14:34:57.051Z,52.40
2023-04-17T14:37:23.611Z,52.93
2023-04-17T14:39:50.102Z,53.06
2023-04-17T14:42:22.605Z,53.09
2023-04-17T14:44:49.203Z,50.91
2023-04-17T14:47:16.313Z,51.51
2023-04-17T14:49:57.731Z,52.73
2023-04-17T14:52:24.452Z,52.82
2023-04-17T14:54:51.108Z,52.41
2023-04-17T14:57:17.829Z,51.94
2023-04-17T15:00:04.936Z,55.63
2023-04-17T15:02:38.308Z,55.96
2023-04-17T15:05:05.863Z,56.59
2023-04-17T15:07:32.396Z,57.45
2023-04-17T15:10:04.507Z,57.44
2023-04-17T15:12:31.059Z,58.71
2023-04-17T15:14:57.484Z,58.28
2023-04-17T15:17:24.134Z,58.44
2023-04-17T15:19:50.744Z,58.71
2023-04-17T15:22:17.273Z,58.75
2023-04-17T15:24:43.722Z,57.01
2023-04-17T15:27:10.343Z,57.91
2023-04-17T15:29:37.186Z,59.29
2023-04-17T15:32:03.707Z,59.96
2023-04-17T15:34:30.152Z,60.69
2023-04-17T15:36:57.379Z,61.63
2023-04-17T15:39:23.783Z,60.64
2023-04-17T15:41:50.670Z,60.55
2023-04-17T15:44:17.094Z,60.82
2023-04-17T15:46:43.562Z,61.25
2023-04-17T15:49:10.066Z,60.84
2023-04-17T15:51:36.439Z,60.49
2023-04-17T15:54:02.907Z,60.70
2023-04-17T15:56:29.425Z,60.58
2023-04-17T15:58:55.982Z,60.20
2023-04-17T16:01:22.486Z,59.75
2023-04-17T16:03:49.053Z,59.95
2023-04-17T16:06:15.629Z,58.96
2023-04-17T16:08:42.067Z,58.07
2023-04-17T16:11:08.601Z,58.14
2023-04-17T16:13:35.020Z,57.19
2023-04-17T16:16:01.696Z,57.69
2023-04-17T16:18:28.234Z,58.32
2023-04-17T16:20:54.650Z,58.69
2023-04-17T16:23:21.342Z,58.47
2023-04-17T16:25:50.061Z,58.10
2023-04-17T16:28:16.534Z,57.10
2023-04-17T16:30:43.025Z,58.33
2023-04-17T16:33:10.030Z,58.69
2023-04-17T16:35:36.455Z,59.09
2023-04-17T16:38:02.993Z,59.54
2023-04-17T16:40:30.988Z,60.04
2023-04-17T16:42:57.665Z,60.23
2023-04-17T16:45:24.061Z,60.39
2023-04-17T16:47:50.770Z,60.44
2023-04-17T16:50:17.325Z,60.68
2023-04-17T16:52:43.922Z,60.30
2023-04-17T16:55:10.516Z,60.35
2023-04-17T16:57:38.197Z,60.15
2023-04-17T17:00:05.516Z,60.20
2023-04-17T17:02:32.016Z,60.28
2023-04-17T17:07:38.833Z,60.45
2023-04-17T17:10:17.808Z,61.17
2023-04-17T17:12:44.248Z,61.11
2023-04-17T17:15:11.034Z,61.61
2023-04-17T17:17:37.529Z,61.80
2023-04-17T17:20:11.442Z,61.65
2023-04-17T17:22:37.885Z,61.61
2023-04-17T17:25:04.913Z,61.45
2023-04-17T17:27:31.307Z,61.84
2023-04-17T17:29:59.683Z,62.18
2023-04-17T17:32:26.962Z,61.88
2023-04-17T17:34:53.502Z,62.70
2023-04-17T17:37:20.546Z,62.43
2023-04-17T17:39:47.012Z,62.56
2023-04-17T17:42:13.389Z,63.11
2023-04-17T17:44:39.955Z,62.55
2023-04-17T17:47:08.016Z,62.48
2023-04-17T17:49:37.594Z,62.91
2023-04-17T17:52:04.366Z,62.98
2023-04-17T17:54:36.197Z,63.16
2023-04-17T17:57:03.204Z,63.29
2023-04-17T17:59:29.644Z,63.45
2023-04-17T18:01:57.366Z,63.59
2023-04-17T18:04:24.415Z,63.46
2023-04-17T18:06:51.122Z,63.55
2023-04-17T18:09:17.514Z,63.83
2023-04-17T18:11:44.085Z,64.48
2023-04-17T18:14:10.860Z,64.59
2023-04-17T18:16:37.577Z,64.87
2023-04-17T18:19:04.949Z,65.09
2023-04-17T18:21:32.105Z,65.30
2023-04-17T18:23:58.668Z,65.49
2023-04-17T18:26:25.244Z,65.94
2023-04-17T18:28:51.842Z,66.05
2023-04-17T18:31:19.036Z,66.33
2023-04-17T18:33:45.595Z,66.52
2023-04-17T18:36:13.097Z,66.84
2023-04-17T18:38:39.661Z,67.24
2023-04-17T18:41:06.089Z,67.69
2023-04-17T18:43:32.642Z,67.98
2023-04-17T18:46:03.595Z,68.49
2023-04-17T18:48:30.200Z,68.87
2023-04-17T18:50:56.590Z,69.28
2023-04-17T18:53:23.179Z,69.51
2023-04-17T18:55:49.829Z,69.97
2023-04-17T18:58:16.422Z,69.67
2023-04-17T19:00:55.204Z,70.51
2023-04-17T19:03:24.719Z,71.03
2023-04-17T19:05:51.188Z,70.67
2023-04-17T19:08:17.691Z,71.41
2023-04-17T19:10:47.275Z,71.66
2023-04-17T19:13:14.142Z,72.40
2023-04-17T19:15:40.715Z,72.40
2023-04-17T19:18:08.973Z,72.38
2023-04-17T19:20:36.536Z,72.83
2023-04-17T19:23:03.448Z,73.61
2023-04-17T19:25:30.001Z,73.44
2023-04-17T19:27:56.676Z,73.73
2023-04-17T19:30:23.305Z,74.09
2023-04-17T19:32:49.905Z,74.20
2023-04-17T19:35:16.482Z,75.06
2023-04-17T19:37:43.062Z,74.75
2023-04-17T19:40:21.548Z,74.75
2023-04-17T19:42:51.262Z,75.00
2023-04-17T19:45:18.030Z,75.02
2023-04-17T19:47:44.452Z,74.98
2023-04-17T19:50:11.694Z,75.04
2023-04-17T19:52:38.414Z,74.94
2023-04-17T19:55:07.995Z,75.13
2023-04-17T19:57:35.217Z,75.40
2023-04-17T20:00:01.662Z,75.30
2023-04-17T20:02:28.315Z,74.99
2023-04-17T20:04:54.806Z,75.56
2023-04-17T20:07:21.159Z,76.02
2023-04-17T20:09:47.729Z,75.89
2023-04-17T20:12:14.158Z,76.01
2023-04-17T20:14:40.720Z,75.33
2023-04-17T20:17:07.273Z,75.83
2023-04-17T20:19:33.759Z,75.57
2023-04-17T20:22:00.201Z,75.57
2023-04-17T20:24:26.859Z,75.74
2023-04-17T20:26:53.294Z,75.97
2023-04-17T20:29:24.143Z,75.88
2023-04-17T20:31:50.754Z,75.83
2023-04-17T20:34:17.301Z,75.68
2023-04-17T20:36:43.997Z,75.82
2023-04-17T20:39:11.091Z,76.03
2023-04-17T20:41:39.488Z,75.92
2023-04-17T20:44:06.947Z,75.86
2023-04-17T20:46:33.567Z,75.66
2023-04-17T20:49:00.161Z,75.51
2023-04-17T20:51:27.422Z,75.60
2023-04-17T20:53:54.396Z,75.04
2023-04-17T20:56:24.059Z,75.26
2023-04-17T20:58:50.699Z,75.65
2023-04-17T21:01:17.427Z,75.44
2023-04-17T21:03:46.150Z,75.96
2023-04-17T21:06:12.675Z,76.06
2023-04-17T21:08:48.466Z,75.93
2023-04-17T21:11:14.959Z,76.43
2023-04-17T21:13:41.526Z,76.17
2023-04-17T21:16:11.138Z,76.54
2023-04-17T21:18:37.857Z,76.40
2023-04-17T21:21:05.341Z,77.00
2023-04-17T21:23:31.988Z,76.74
2023-04-17T21:25:58.397Z,77.01
2023-04-17T21:28:25.074Z,77.01
2023-04-17T21:31:00.869Z,77.63
2023-04-17T21:33:27.221Z,77.31
2023-04-17T21:35:54.533Z,77.25
2023-04-17T21:38:21.043Z,77.50
2023-04-17T21:40:51.345Z,77.33
2023-04-17T21:43:18.380Z,77.29
2023-04-17T21:45:44.981Z,77.33
2023-04-17T21:48:17.791Z,77.63
2023-04-17T21:50:44.353Z,77.33
2023-04-17T21:53:10.865Z,77.57
2023-04-17T21:55:38.189Z,77.99
2023-04-17T21:58:04.603Z,77.91
2023-04-17T22:00:32.085Z,78.01
2023-04-17T22:02:59.373Z,79.03
2023-04-17T22:05:25.876Z,78.84
2023-04-17T22:07:55.347Z,78.59
2023-04-17T22:10:23.387Z,78.75
2023-04-17T22:12:49.875Z,78.99
2023-04-17T22:15:16.930Z,79.78
2023-04-17T22:17:43.620Z,80.21
2023-04-17T22:20:28.541Z,80.85
2023-04-17T22:23:32.731Z,80.51
2023-04-17T22:26:18.051Z,80.29
2023-04-17T22:29:22.033Z,81.06
2023-04-17T22:31:51.730Z,81.12
2023-04-17T22:34:36.963Z,81.65
2023-04-17T22:37:21.820Z,81.70
2023-04-17T22:40:25.828Z,81.99
2023-04-17T22:43:10.940Z,82.11
2023-04-17T22:46:34.281Z,81.56
2023-04-17T22:49:38.542Z,81.97
2023-04-17T22:52:06.177Z,82.30
2023-04-17T22:54:52.471Z,81.99
2023-04-17T22:57:37.581Z,82.58
2023-04-17T23:00:22.931Z,82.18
2023-04-17T23:03:08.054Z,82.45
2023-04-17T23:06:31.130Z,83.13
2023-04-17T23:08:58.398Z,83.24
2023-04-17T23:11:24.969Z,82.82
2023-04-17T23:13:51.511Z,82.92
2023-04-17T23:16:18.046Z,83.25
2023-04-17T23:18:44.514Z,82.91
2023-04-17T23:21:11.251Z,83.51
2023-04-17T23:23:48.216Z,82.88
2023-04-17T23:26:15.297Z,83.13
2023-04-17T23:28:42.018Z,83.26
2023-04-17T23:31:19.780Z,83.39
2023-04-17T23:33:46.296Z,83.73
2023-04-17T23:36:13.609Z,84.05
2023-04-17T23:38:40.065Z,84.02
2023-04-17T23:41:06.593Z,84.20
2023-04-17T23:43:33.166Z,84.29
2023-04-17T23:46:00.850Z,83.84
2023-04-17T23:48:28.354Z,83.66
2023-04-17T23:50:55.060Z,84.20
2023-04-17T23:53:21.476Z,84.15
2023-04-17T23:55:47.986Z,83.97
2023-04-17T23:58:15.054Z,83.77
